Time;durP1;ratioP1;P1;durP2;ratioP2;P2;SDS_P1;SDS_P2;PMS_P1;PMS_P2;Temp;Humidity;BMP_temperature;BMP_pressure;BME280_temperature;BME280_humidity;BME280_pressure;Samples;Min_cycle;Max_cycle;Signal;HPM_P1;HPM_P2
2022/08/06 00:01:45;;;;;;;;;;;11.80;99.90;;;;;;5073243;28;20387;-70
2022/08/06 00:04:11;;;;;;;;;;;11.70;99.90;;;;;;5055283;28;19916;-70
2022/08/06 00:06:36;;;;;;;;;;;11.70;99.90;;;;;;5073216;28;19963;-69
2022/08/06 00:09:02;;;;;;;;;;;11.60;99.90;;;;;;5055261;28;20438;-69
2022/08/06 00:11:27;;;;;;;;;;;11.60;99.90;;;;;;5055179;28;19913;-69
2022/08/06 00:13:53;;;;;;;;;;;11.60;99.90;;;;;;5073056;28;19970;-69
2022/08/06 00:16:18;;;;;;;;;;;11.50;99.90;;;;;;5073113;28;19909;-69
2022/08/06 00:18:44;;;;;;;;;;;11.50;99.90;;;;;;5073111;28;19916;-69
2022/08/06 00:21:09;;;;;;;;;;;11.50;99.90;;;;;;5072992;28;19908;-70
2022/08/06 00:23:34;;;;;;;;;;;11.50;99.90;;;;;;5073098;28;19955;-69
2022/08/06 00:26:00;;;;;;;;;;;11.50;99.90;;;;;;5073039;28;19915;-69
2022/08/06 00:28:26;;;;;;;;;;;11.50;99.90;;;;;;5055146;28;19915;-69
2022/08/06 00:30:51;;;;;;;;;;;11.40;99.90;;;;;;5072993;28;19908;-69
2022/08/06 00:33:17;;;;;;;;;;;11.30;99.90;;;;;;5072609;28;20433;-69
2022/08/06 00:35:43;;;;;;;;;;;11.20;99.90;;;;;;5072937;28;19944;-69
2022/08/06 00:38:09;;;;;;;;;;;11.20;99.90;;;;;;5038362;28;19916;-71
2022/08/06 00:40:35;;;;;;;;;;;11.10;99.90;;;;;;5075268;28;20283;-69
2022/08/06 00:43:02;;;;;;;;;;;11.10;99.90;;;;;;5076475;28;19909;-69
2022/08/06 00:45:31;;;;;;;;;;;11.00;99.90;;;;;;5076471;28;20286;-69
2022/08/06 00:47:56;;;;;;;;;;;11.00;99.90;;;;;;5076356;28;19909;-70
2022/08/06 00:50:22;;;;;;;;;;;11.00;99.90;;;;;;5076315;28;19990;-70
2022/08/06 00:52:47;;;;;;;;;;;11.00;99.90;;;;;;5076277;28;19912;-69
2022/08/06 00:55:13;;;;;;;;;;;10.90;99.90;;;;;;5076296;28;20326;-69
2022/08/06 00:57:38;;;;;;;;;;;10.90;99.90;;;;;;5076292;28;19915;-69
2022/08/06 01:00:05;;;;;;;;;;;10.80;99.90;;;;;;5076301;28;20010;-69
2022/08/06 01:02:31;;;;;;;;;;;10.70;99.90;;;;;;5076160;28;19991;-69
2022/08/06 01:04:56;;;;;;;;;;;10.70;99.90;;;;;;5058318;28;20090;-69
2022/08/06 01:07:21;;;;;;;;;;;10.60;99.90;;;;;;5058149;28;19948;-69
2022/08/06 01:09:48;;;;;;;;;;;10.60;99.90;;;;;;5075984;28;19908;-69
2022/08/06 01:12:14;;;;;;;;;;;10.50;99.90;;;;;;5075959;28;19912;-70
2022/08/06 01:14:40;;;;;;;;;;;10.50;99.90;;;;;;5075944;28;20393;-69
2022/08/06 01:17:08;;;;;;;;;;;10.50;99.90;;;;;;5075961;28;19915;-69
2022/08/06 01:19:42;;;;;;;;;;;10.50;99.90;;;;;;5075851;28;19953;-69
2022/08/06 01:22:28;;;;;;;;;;;10.40;99.90;;;;;;5041275;28;19909;-69
2022/08/06 01:24:58;;;;;;;;;;;10.40;99.90;;;;;;5075654;28;19915;-69
2022/08/06 01:30:06;;;;;;;;;;;10.30;99.90;;;;;;5071192;28;19912;-66
2022/08/06 01:32:35;;;;;;;;;;;10.30;99.90;;;;;;5071204;28;20363;-67
2022/08/06 01:35:05;;;;;;;;;;;10.30;99.90;;;;;;5070867;28;19909;-67
2022/08/06 01:37:35;;;;;;;;;;;10.20;99.90;;;;;;5070833;28;19908;-67
2022/08/06 01:40:02;;;;;;;;;;;10.20;99.90;;;;;;5070796;28;19912;-66
2022/08/06 01:42:29;;;;;;;;;;;10.20;99.90;;;;;;5070773;28;19958;-67
2022/08/06 01:44:56;;;;;;;;;;;10.10;99.90;;;;;;5070965;28;19931;-67
2022/08/06 01:47:24;;;;;;;;;;;10.10;99.90;;;;;;5070932;28;19908;-66
2022/08/06 01:49:51;;;;;;;;;;;10.10;99.90;;;;;;5070788;28;19962;-67
2022/08/06 01:52:17;;;;;;;;;;;10.00;99.90;;;;;;5070531;28;19909;-66
2022/08/06 01:54:45;;;;;;;;;;;10.00;99.90;;;;;;5070800;28;20381;-66
2022/08/06 01:57:11;;;;;;;;;;;10.00;99.90;;;;;;5070473;28;19909;-66
2022/08/06 01:59:41;;;;;;;;;;;10.00;99.90;;;;;;5070691;28;19908;-66
2022/08/06 02:02:10;;;;;;;;;;;10.00;99.90;;;;;;5070641;28;19909;-66
2022/08/06 02:04:37;;;;;;;;;;;9.90;99.90;;;;;;5070362;28;19991;-66
2022/08/06 02:07:05;;;;;;;;;;;9.90;99.90;;;;;;5070252;28;19909;-66
2022/08/06 02:09:31;;;;;;;;;;;9.90;99.90;;;;;;5070288;28;19913;-66
2022/08/06 02:11:59;;;;;;;;;;;9.90;99.90;;;;;;5070089;28;19908;-66
2022/08/06 02:14:25;;;;;;;;;;;9.90;99.90;;;;;;5070324;28;19916;-66
2022/08/06 02:16:54;;;;;;;;;;;9.90;99.90;;;;;;5070282;28;19909;-66
2022/08/06 02:19:21;;;;;;;;;;;9.80;99.90;;;;;;5070128;28;20279;-67
2022/08/06 02:21:47;;;;;;;;;;;9.80;99.90;;;;;;5070177;28;20289;-66
2022/08/06 02:24:13;;;;;;;;;;;9.80;99.90;;;;;;5069827;28;19908;-66
2022/08/06 02:26:40;;;;;;;;;;;9.80;99.90;;;;;;5069824;28;19991;-66
2022/08/06 02:29:06;;;;;;;;;;;9.80;99.90;;;;;;5082084;28;19963;-66
2022/08/06 02:31:32;;;;;;;;;;;9.80;99.90;;;;;;5090261;28;20370;-66
2022/08/06 02:33:58;;;;;;;;;;;9.80;99.90;;;;;;5089978;28;19909;-66
2022/08/06 02:36:28;;;;;;;;;;;9.70;99.90;;;;;;5090152;28;19990;-66
2022/08/06 02:38:58;;;;;;;;;;;9.80;99.90;;;;;;5089867;28;19933;-66
2022/08/06 02:41:27;;;;;;;;;;;9.70;99.90;;;;;;5076524;28;19917;-66
2022/08/06 02:43:56;;;;;;;;;;;9.70;99.90;;;;;;5076392;28;19909;-66
2022/08/06 02:46:25;;;;;;;;;;;9.70;99.90;;;;;;5076598;28;19908;-66
2022/08/06 02:49:10;;;;;;;;;;;9.70;99.90;;;;;;5076449;28;20286;-66
2022/08/06 02:51:38;;;;;;;;;;;9.60;99.90;;;;;;5076133;28;19913;-66
2022/08/06 02:54:05;;;;;;;;;;;9.70;99.90;;;;;;5076398;28;19908;-66
2022/08/06 02:56:33;;;;;;;;;;;9.60;99.90;;;;;;5076106;28;19908;-66
2022/08/06 02:59:00;;;;;;;;;;;9.60;99.90;;;;;;5076326;28;20374;-66
2022/08/06 03:01:36;;;;;;;;;;;9.60;99.90;;;;;;5075984;28;19966;-66
2022/08/06 03:04:04;;;;;;;;;;;9.70;99.90;;;;;;5075951;28;19915;-66
2022/08/06 03:06:31;;;;;;;;;;;9.70;99.90;;;;;;5058033;28;20326;-66
2022/08/06 03:08:58;;;;;;;;;;;9.70;99.90;;;;;;5076091;28;19912;-66
2022/08/06 03:11:25;;;;;;;;;;;9.60;99.90;;;;;;5075874;28;19908;-66
2022/08/06 03:13:52;;;;;;;;;;;9.60;99.90;;;;;;5075736;28;19999;-66
2022/08/06 03:16:18;;;;;;;;;;;9.60;99.90;;;;;;5075733;28;19909;-66
2022/08/06 03:18:45;;;;;;;;;;;9.70;99.90;;;;;;5075912;28;20378;-66
2022/08/06 03:21:11;;;;;;;;;;;9.60;99.90;;;;;;5075804;28;19948;-66
2022/08/06 03:23:37;;;;;;;;;;;9.60;99.90;;;;;;5075805;28;20313;-66
2022/08/06 03:26:03;;;;;;;;;;;9.60;99.90;;;;;;5075438;28;19978;-66
2022/08/06 03:28:29;;;;;;;;;;;9.50;99.90;;;;;;5075213;28;20011;-66
2022/08/06 03:30:56;;;;;;;;;;;9.50;99.90;;;;;;5075692;28;19908;-66
2022/08/06 03:33:22;;;;;;;;;;;9.50;99.90;;;;;;5075630;28;20011;-66
2022/08/06 03:35:48;;;;;;;;;;;9.50;99.90;;;;;;5075579;28;19915;-66
2022/08/06 03:38:15;;;;;;;;;;;9.50;99.90;;;;;;5075518;28;19908;-66
2022/08/06 03:40:42;;;;;;;;;;;9.50;99.90;;;;;;5075350;28;19916;-66
2022/08/06 03:43:08;;;;;;;;;;;9.50;99.90;;;;;;5075426;28;19948;-66
2022/08/06 03:45:36;;;;;;;;;;;9.50;99.90;;;;;;5075391;28;19909;-66
2022/08/06 03:48:03;;;;;;;;;;;9.50;99.90;;;;;;5075263;28;19955;-66
2022/08/06 03:50:29;;;;;;;;;;;9.40;99.90;;;;;;5075261;28;19908;-66
2022/08/06 03:52:59;;;;;;;;;;;9.40;99.90;;;;;;5073980;28;19934;-66
2022/08/06 03:55:26;;;;;;;;;;;9.40;99.90;;;;;;5075155;28;19915;-66
2022/08/06 03:57:53;;;;;;;;;;;9.40;99.90;;;;;;5075135;28;19909;-66
2022/08/06 04:00:20;;;;;;;;;;;9.40;99.90;;;;;;5075094;28;20330;-66
2022/08/06 04:02:48;;;;;;;;;;;9.40;99.90;;;;;;5074781;28;19919;-66
2022/08/06 04:05:18;;;;;;;;;;;9.40;99.90;;;;;;5075012;28;19958;-66
2022/08/06 04:07:44;;;;;;;;;;;9.40;99.90;;;;;;5074883;28;20317;-66
2022/08/06 04:10:10;;;;;;;;;;;9.40;99.90;;;;;;5074767;28;19908;-66
2022/08/06 04:12:36;;;;;;;;;;;9.40;99.90;;;;;;5074814;28;19912;-66
2022/08/06 04:15:02;;;;;;;;;;;9.30;99.90;;;;;;5074826;28;20381;-66
2022/08/06 04:17:28;;;;;;;;;;;9.40;99.90;;;;;;5074772;28;19930;-66
2022/08/06 04:19:54;;;;;;;;;;;9.40;99.90;;;;;;5074724;28;19909;-66
2022/08/06 04:22:20;;;;;;;;;;;9.40;99.90;;;;;;5074335;28;20382;-66
2022/08/06 04:24:46;;;;;;;;;;;9.40;99.90;;;;;;5074322;28;19920;-66
2022/08/06 04:27:12;;;;;;;;;;;9.40;99.90;;;;;;5074324;28;19909;-66
2022/08/06 04:29:38;;;;;;;;;;;9.50;99.90;;;;;;5074068;28;19921;-66
2022/08/06 04:32:05;;;;;;;;;;;9.50;99.90;;;;;;5074516;28;19915;-66
2022/08/06 04:34:31;;;;;;;;;;;9.60;99.90;;;;;;5074421;28;19947;-66
2022/08/06 04:36:58;;;;;;;;;;;9.60;99.90;;;;;;5074164;28;20384;-66
2022/08/06 04:39:24;;;;;;;;;;;9.70;99.90;;;;;;5074131;28;19909;-66
2022/08/06 04:41:49;;;;;;;;;;;9.70;99.90;;;;;;5074339;28;19915;-67
2022/08/06 04:44:15;;;;;;;;;;;9.70;99.90;;;;;;5074221;28;20409;-66
2022/08/06 04:46:41;;;;;;;;;;;9.70;99.90;;;;;;5073829;28;20011;-67
2022/08/06 04:49:07;;;;;;;;;;;9.80;99.90;;;;;;5073853;28;20342;-66
2022/08/06 04:51:34;;;;;;;;;;;9.90;99.90;;;;;;5074188;28;19909;-66
2022/08/06 04:54:03;;;;;;;;;;;10.00;99.90;;;;;;5074131;28;19957;-66
2022/08/06 04:56:28;;;;;;;;;;;10.10;99.90;;;;;;5074120;28;19931;-66
2022/08/06 04:58:54;;;;;;;;;;;10.60;99.90;;;;;;5073825;28;19908;-66
2022/08/06 05:01:19;;;;;;;;;;;11.20;99.90;;;;;;5074053;28;19916;-66
2022/08/06 05:03:45;;;;;;;;;;;11.60;99.90;;;;;;5073570;28;19947;-66
2022/08/06 05:06:21;;;;;;;;;;;11.50;99.90;;;;;;5073709;28;20374;-66
2022/08/06 05:08:49;;;;;;;;;;;11.40;99.90;;;;;;5073627;28;19919;-66
2022/08/06 05:11:33;;;;;;;;;;;11.30;99.90;;;;;;5073908;28;19908;-66
2022/08/06 05:14:01;;;;;;;;;;;11.30;99.90;;;;;;5073925;28;20426;-66
2022/08/06 05:16:27;;;;;;;;;;;11.40;99.90;;;;;;5073900;28;19908;-66
2022/08/06 05:18:57;;;;;;;;;;;11.40;99.90;;;;;;5073554;28;19917;-66
2022/08/06 05:21:25;;;;;;;;;;;11.50;99.90;;;;;;5073832;28;19908;-66
2022/08/06 05:23:53;;;;;;;;;;;11.50;99.90;;;;;;5073793;28;19931;-67
2022/08/06 05:26:19;;;;;;;;;;;11.60;99.90;;;;;;5073762;28;19916;-67
2022/08/06 05:28:44;;;;;;;;;;;11.70;99.90;;;;;;5073244;28;19921;-67
2022/08/06 05:31:10;;;;;;;;;;;11.80;99.90;;;;;;5073473;28;20386;-67
2022/08/06 05:33:36;;;;;;;;;;;11.90;99.90;;;;;;5073432;28;19912;-66
2022/08/06 05:36:03;;;;;;;;;;;11.90;99.90;;;;;;5073725;28;19932;-66
2022/08/06 05:38:29;;;;;;;;;;;12.10;99.90;;;;;;5073686;28;19982;-67
2022/08/06 05:40:55;;;;;;;;;;;12.20;99.90;;;;;;5073681;28;20328;-67
2022/08/06 05:43:21;;;;;;;;;;;12.40;99.90;;;;;;5073662;28;19912;-67
2022/08/06 05:45:47;;;;;;;;;;;12.70;99.90;;;;;;5073611;28;19909;-67
2022/08/06 05:48:13;;;;;;;;;;;13.20;99.90;;;;;;5073502;28;20382;-67
2022/08/06 05:50:41;;;;;;;;;;;14.30;99.90;;;;;;5073354;28;19908;-68
2022/08/06 05:53:10;;;;;;;;;;;18.00;99.90;;;;;;5073242;28;19909;-68
2022/08/06 05:55:43;;;;;;;;;;;18.40;99.90;;;;;;5073486;28;20002;-68
2022/08/06 05:58:12;;;;;;;;;;;20.10;99.90;;;;;;5073264;28;19932;-68
2022/08/06 06:00:38;;;;;;;;;;;20.50;99.90;;;;;;5073452;28;20282;-68
2022/08/06 06:03:06;;;;;;;;;;;21.80;99.90;;;;;;5073440;28;19969;-68
2022/08/06 06:05:32;;;;;;;;;;;22.00;99.90;;;;;;5073432;28;19952;-68
2022/08/06 06:07:58;;;;;;;;;;;22.30;99.90;;;;;;5073298;28;19951;-69
2022/08/06 06:10:24;;;;;;;;;;;21.70;99.90;;;;;;5055247;28;20419;-68
2022/08/06 06:12:51;;;;;;;;;;;22.20;99.90;;;;;;5073283;28;19908;-68
2022/08/06 06:15:17;;;;;;;;;;;22.80;99.90;;;;;;5074440;28;20281;-68
2022/08/06 06:17:51;;;;;;;;;;;22.70;99.90;;;;;;5077078;28;19908;-68
2022/08/06 06:20:22;;;;;;;;;;;23.00;99.90;;;;;;5076921;28;19909;-65
2022/08/06 06:22:58;;;;;;;;;;;23.30;98.90;;;;;;5076979;28;19915;-68
2022/08/06 06:25:33;;;;;;;;;;;24.00;97.90;;;;;;5076744;28;19908;-68
2022/08/06 06:28:02;;;;;;;;;;;24.30;96.30;;;;;;5076565;28;19927;-68
2022/08/06 06:30:47;;;;;;;;;;;24.40;95.60;;;;;;5076820;28;20277;-68
2022/08/06 06:33:24;;;;;;;;;;;23.90;96.50;;;;;;5076431;28;19931;-68
2022/08/06 06:35:54;;;;;;;;;;;23.90;96.50;;;;;;5076532;28;19995;-68
2022/08/06 06:38:25;;;;;;;;;;;24.20;95.70;;;;;;5076742;28;19931;-68
2022/08/06 06:40:55;;;;;;;;;;;24.00;96.60;;;;;;5076388;28;19908;-68
2022/08/06 06:43:24;;;;;;;;;;;25.40;94.50;;;;;;5076354;28;19915;-69
2022/08/06 06:46:01;;;;;;;;;;;26.30;92.90;;;;;;5076579;28;20355;-68
2022/08/06 06:48:34;;;;;;;;;;;26.50;90.80;;;;;;5076233;28;19912;-68
2022/08/06 06:51:02;;;;;;;;;;;26.30;90.60;;;;;;5076455;28;19912;-68
2022/08/06 06:53:30;;;;;;;;;;;26.40;89.90;;;;;;5076415;28;20382;-68
2022/08/06 06:55:56;;;;;;;;;;;26.10;89.80;;;;;;5076190;28;20123;-68
2022/08/06 06:58:27;;;;;;;;;;;25.40;90.60;;;;;;5076355;28;19908;-68
2022/08/06 07:00:53;;;;;;;;;;;25.30;92.60;;;;;;5076308;28;19920;-68
2022/08/06 07:03:19;;;;;;;;;;;25.70;91.10;;;;;;5076226;28;19915;-68
2022/08/06 07:05:46;;;;;;;;;;;25.20;92.20;;;;;;5076242;28;20003;-68
2022/08/06 07:08:13;;;;;;;;;;;25.60;91.30;;;;;;5076108;28;19909;-68
2022/08/06 07:10:39;;;;;;;;;;;25.80;89.30;;;;;;5076050;28;19908;-68
2022/08/06 07:13:05;;;;;;;;;;;26.90;88.30;;;;;;5076058;28;19932;-68
2022/08/06 07:15:31;;;;;;;;;;;26.90;85.70;;;;;;5076046;28;20362;-68
2022/08/06 07:17:57;;;;;;;;;;;26.90;87.30;;;;;;5075936;28;19919;-68
2022/08/06 07:20:25;;;;;;;;;;;26.50;83.40;;;;;;5075952;28;20367;-68
2022/08/06 07:22:52;;;;;;;;;;;26.40;86.30;;;;;;5075651;28;19909;-68
2022/08/06 07:25:18;;;;;;;;;;;26.60;86.40;;;;;;5075817;28;20062;-68
2022/08/06 07:27:45;;;;;;;;;;;26.90;84.80;;;;;;5075443;28;19948;-68
2022/08/06 07:30:12;;;;;;;;;;;26.60;82.50;;;;;;5075476;28;19916;-68
2022/08/06 07:32:38;;;;;;;;;;;27.30;80.90;;;;;;5075657;28;19915;-68
2022/08/06 07:35:04;;;;;;;;;;;27.00;80.80;;;;;;5057494;28;20416;-68
2022/08/06 07:37:31;;;;;;;;;;;25.70;84.70;;;;;;5075598;28;20000;-68
2022/08/06 07:39:59;;;;;;;;;;;26.50;83.20;;;;;;5075532;28;19909;-68
2022/08/06 07:42:26;;;;;;;;;;;27.10;79.40;;;;;;5075193;28;19913;-68
2022/08/06 07:44:53;;;;;;;;;;;27.70;78.80;;;;;;5075104;28;19915;-68
2022/08/06 07:47:21;;;;;;;;;;;26.70;78.30;;;;;;5075353;28;19909;-68
2022/08/06 07:49:49;;;;;;;;;;;27.10;80.70;;;;;;5075182;28;19913;-68
2022/08/06 07:52:15;;;;;;;;;;;26.20;81.00;;;;;;5074942;28;19915;-68
2022/08/06 07:54:41;;;;;;;;;;;26.10;80.90;;;;;;5075261;28;20017;-68
2022/08/06 07:57:07;;;;;;;;;;;26.70;81.40;;;;;;5074957;28;19921;-68
2022/08/06 07:59:33;;;;;;;;;;;27.30;77.60;;;;;;5074867;28;20008;-68
2022/08/06 08:02:00;;;;;;;;;;;27.80;76.30;;;;;;5075097;28;19916;-68
2022/08/06 08:07:11;;;;;;;;;;;26.80;77.20;;;;;;5074510;28;20362;-68
2022/08/06 08:09:37;;;;;;;;;;;26.70;74.20;;;;;;5074902;28;19920;-68
2022/08/06 08:12:05;;;;;;;;;;;26.70;75.10;;;;;;5074861;28;19954;-67
2022/08/06 08:14:30;;;;;;;;;;;26.30;75.90;;;;;;5074825;28;20278;-68
2022/08/06 08:16:56;;;;;;;;;;;26.20;76.40;;;;;;5074515;28;19912;-68
2022/08/06 08:19:22;;;;;;;;;;;24.80;80.90;;;;;;5074536;28;19914;-68
2022/08/06 08:21:49;;;;;;;;;;;24.90;72.60;;;;;;5074468;28;20358;-68
2022/08/06 08:24:15;;;;;;;;;;;25.30;73.80;;;;;;5074601;28;19954;-68
2022/08/06 08:26:41;;;;;;;;;;;25.70;75.50;;;;;;5074380;28;20002;-68
2022/08/06 08:29:06;;;;;;;;;;;27.00;74.20;;;;;;5074121;28;20003;-68
2022/08/06 08:31:32;;;;;;;;;;;28.40;69.00;;;;;;5074331;28;19912;-68
2022/08/06 08:33:57;;;;;;;;;;;27.80;71.00;;;;;;5074217;28;19909;-68
2022/08/06 08:36:23;;;;;;;;;;;28.20;67.70;;;;;;5074140;28;19912;-68
2022/08/06 08:38:48;;;;;;;;;;;27.60;67.00;;;;;;5073865;28;19908;-68
2022/08/06 08:41:21;;;;;;;;;;;28.30;69.40;;;;;;5074353;28;19913;-68
2022/08/06 08:43:50;;;;;;;;;;;27.60;68.30;;;;;;5074298;28;19958;-68
2022/08/06 08:46:15;;;;;;;;;;;27.00;68.30;;;;;;5074235;28;20358;-68
2022/08/06 08:48:43;;;;;;;;;;;27.00;67.50;;;;;;5073959;28;19912;-68
2022/08/06 08:51:11;;;;;;;;;;;27.20;65.10;;;;;;5074144;28;20362;-68
2022/08/06 08:53:42;;;;;;;;;;;26.90;64.60;;;;;;5073898;28;19913;-68
2022/08/06 08:56:08;;;;;;;;;;;27.50;67.80;;;;;;5073878;28;19962;-68
2022/08/06 08:58:36;;;;;;;;;;;27.90;65.80;;;;;;5056046;28;19909;-67
2022/08/06 09:01:03;;;;;;;;;;;26.80;68.80;;;;;;5074100;28;20345;-67
2022/08/06 09:03:28;;;;;;;;;;;26.70;69.80;;;;;;5073998;28;19908;-67
2022/08/06 09:05:55;;;;;;;;;;;27.90;68.40;;;;;;5074053;28;20334;-67
2022/08/06 09:08:21;;;;;;;;;;;28.20;64.70;;;;;;5073923;28;20278;-68
2022/08/06 09:10:46;;;;;;;;;;;29.00;61.20;;;;;;5073892;28;19916;-67
2022/08/06 09:13:12;;;;;;;;;;;28.10;66.90;;;;;;5073629;28;19916;-67
2022/08/06 09:15:37;;;;;;;;;;;27.70;63.00;;;;;;5073594;28;19912;-67
2022/08/06 09:18:04;;;;;;;;;;;27.10;63.50;;;;;;5073917;28;20282;-68
2022/08/06 09:20:29;;;;;;;;;;;27.10;63.80;;;;;;5073600;28;19908;-68
2022/08/06 09:22:55;;;;;;;;;;;26.20;65.00;;;;;;5073549;28;19966;-68
2022/08/06 09:25:40;;;;;;;;;;;27.10;65.90;;;;;;5073821;28;20366;-68
2022/08/06 09:28:10;;;;;;;;;;;27.60;64.10;;;;;;5073115;28;20041;-68
2022/08/06 09:30:36;;;;;;;;;;;26.70;66.70;;;;;;5073728;28;19916;-68
2022/08/06 09:33:01;;;;;;;;;;;27.10;63.40;;;;;;5073731;28;19912;-68
2022/08/06 09:35:29;;;;;;;;;;;26.30;62.60;;;;;;5073371;28;20427;-68
2022/08/06 09:38:03;;;;;;;;;;;26.80;65.00;;;;;;5073348;28;19908;-68
2022/08/06 09:40:28;;;;;;;;;;;27.00;62.90;;;;;;5073670;28;19916;-68
2022/08/06 09:42:54;;;;;;;;;;;27.50;66.30;;;;;;5073620;28;19908;-68
2022/08/06 09:45:20;;;;;;;;;;;28.10;62.10;;;;;;5073331;28;20357;-68
2022/08/06 09:47:48;;;;;;;;;;;27.90;62.60;;;;;;5073303;28;19912;-68
2022/08/06 09:50:14;;;;;;;;;;;27.50;62.80;;;;;;5074651;28;19977;-68
2022/08/06 09:52:39;;;;;;;;;;;26.90;64.10;;;;;;5077280;28;19915;-68
2022/08/06 09:55:05;;;;;;;;;;;26.80;63.10;;;;;;5077366;28;20003;-68
2022/08/06 09:57:46;;;;;;;;;;;27.70;60.40;;;;;;5059321;28;20007;-69
2022/08/06 10:00:24;;;;;;;;;;;28.50;60.80;;;;;;5077286;28;19913;-68
2022/08/06 10:02:49;;;;;;;;;;;27.30;60.60;;;;;;5077422;28;19914;-68
2022/08/06 10:05:15;;;;;;;;;;;27.10;65.60;;;;;;5077380;28;20266;-69
2022/08/06 10:07:40;;;;;;;;;;;26.70;65.70;;;;;;5059308;28;20401;-67
2022/08/06 10:10:06;;;;;;;;;;;25.90;63.80;;;;;;5076891;28;19916;-68
2022/08/06 10:12:32;;;;;;;;;;;25.10;63.90;;;;;;5077166;28;20004;-67
2022/08/06 10:14:58;;;;;;;;;;;24.40;68.50;;;;;;5077064;28;20353;-67
2022/08/06 10:17:24;;;;;;;;;;;25.20;68.90;;;;;;5077176;28;19995;-67
2022/08/06 10:20:06;;;;;;;;;;;25.60;66.80;;;;;;5076755;28;20370;-67
2022/08/06 10:22:31;;;;;;;;;;;25.70;65.10;;;;;;5076994;28;20252;-67
2022/08/06 10:25:01;;;;;;;;;;;26.70;64.80;;;;;;5076965;28;19915;-67
2022/08/06 10:27:28;;;;;;;;;;;25.90;62.00;;;;;;5076896;28;19966;-67
2022/08/06 10:29:54;;;;;;;;;;;24.90;65.90;;;;;;5076365;28;19928;-67
2022/08/06 10:32:22;;;;;;;;;;;25.70;63.10;;;;;;5076801;28;20378;-67
2022/08/06 10:34:48;;;;;;;;;;;26.00;62.40;;;;;;5076530;28;20390;-67
2022/08/06 10:37:16;;;;;;;;;;;27.20;61.10;;;;;;5058905;28;19932;-67
2022/08/06 10:39:45;;;;;;;;;;;27.40;63.20;;;;;;5076664;28;19909;-67
2022/08/06 10:42:11;;;;;;;;;;;27.30;59.90;;;;;;5076705;28;19931;-68
2022/08/06 10:44:37;;;;;;;;;;;26.90;62.30;;;;;;5058312;28;19916;-67
2022/08/06 10:47:03;;;;;;;;;;;25.60;61.40;;;;;;5076207;28;19909;-67
2022/08/06 10:49:29;;;;;;;;;;;24.30;64.60;;;;;;5076301;28;19920;-67
2022/08/06 10:51:55;;;;;;;;;;;24.10;65.30;;;;;;5076478;28;20405;-67
2022/08/06 10:54:22;;;;;;;;;;;24.20;65.60;;;;;;5076456;28;20021;-67
2022/08/06 10:56:47;;;;;;;;;;;24.70;65.90;;;;;;5076388;28;19951;-67
2022/08/06 10:59:14;;;;;;;;;;;24.80;66.70;;;;;;5076377;28;19913;-67
2022/08/06 11:01:59;;;;;;;;;;;25.10;66.80;;;;;;5075858;28;20282;-67
2022/08/06 11:04:33;;;;;;;;;;;25.00;65.80;;;;;;5075874;28;20286;-67
2022/08/06 11:10:04;;;;;;;;;;;25.30;67.10;;;;;;5071183;28;20017;-67
2022/08/06 11:12:50;;;;;;;;;;;25.30;64.80;;;;;;5070862;28;20046;-67
2022/08/06 11:15:15;;;;;;;;;;;25.30;60.10;;;;;;5070888;28;20436;-68
2022/08/06 11:17:42;;;;;;;;;;;24.80;63.00;;;;;;5071094;28;19913;-67
2022/08/06 11:20:08;;;;;;;;;;;24.70;64.00;;;;;;5070717;28;19912;-67
2022/08/06 11:22:35;;;;;;;;;;;24.60;67.30;;;;;;5070675;28;20015;-67
2022/08/06 11:25:00;;;;;;;;;;;24.90;64.80;;;;;;5070885;28;20366;-67
2022/08/06 11:27:46;;;;;;;;;;;24.90;65.50;;;;;;5070557;28;20007;-67
2022/08/06 11:30:12;;;;;;;;;;;25.30;65.80;;;;;;5070691;28;19916;-67
2022/08/06 11:32:52;;;;;;;;;;;25.30;64.20;;;;;;5070508;28;19909;-67
2022/08/06 11:38:13;;;;;;;;;;;24.70;66.00;;;;;;5071116;28;19912;-68
2022/08/06 11:40:55;;;;;;;;;;;25.10;65.20;;;;;;5070887;28;19912;-68
2022/08/06 11:43:40;;;;;;;;;;;25.30;61.80;;;;;;5071113;28;20427;-68
2022/08/06 11:46:22;;;;;;;;;;;24.40;63.60;;;;;;5070809;28;19916;-68
2022/08/06 11:49:08;;;;;;;;;;;24.00;64.70;;;;;;5071131;28;20298;-68
2022/08/06 11:54:17;;;;;;;;;;;24.80;59.50;;;;;;5071080;28;19913;-67
2022/08/06 11:57:04;;;;;;;;;;;25.10;60.30;;;;;;5071205;28;19913;-67
2022/08/06 11:59:32;;;;;;;;;;;24.60;59.10;;;;;;5070822;28;20009;-67
2022/08/06 12:01:59;;;;;;;;;;;24.70;62.60;;;;;;5070831;28;20405;-67
2022/08/06 12:04:42;;;;;;;;;;;25.10;63.70;;;;;;5070990;28;19917;-67
2022/08/06 12:07:27;;;;;;;;;;;24.90;60.00;;;;;;5070981;28;19959;-67
2022/08/06 12:10:10;;;;;;;;;;;25.10;63.70;;;;;;5070577;28;19974;-67
2022/08/06 12:12:43;;;;;;;;;;;24.80;62.10;;;;;;5070750;28;19919;-67
2022/08/06 12:17:58;;;;;;;;;;;25.30;63.30;;;;;;5091263;27;20290;-68
2022/08/06 12:20:35;;;;;;;;;;;25.00;61.90;;;;;;5091370;28;19913;-68
2022/08/06 12:23:02;;;;;;;;;;;25.20;61.10;;;;;;5091097;28;19919;-68
2022/08/06 12:25:31;;;;;;;;;;;25.40;62.20;;;;;;5091271;28;19915;-68
2022/08/06 12:27:57;;;;;;;;;;;24.60;62.10;;;;;;5091263;28;20003;-68
2022/08/06 12:30:23;;;;;;;;;;;24.40;63.20;;;;;;5091160;28;19936;-68
2022/08/06 12:32:48;;;;;;;;;;;24.20;65.40;;;;;;5091190;28;19995;-68
2022/08/06 12:35:14;;;;;;;;;;;23.80;61.90;;;;;;5090784;28;20358;-68
2022/08/06 12:37:41;;;;;;;;;;;23.40;63.90;;;;;;5090665;28;20015;-68
2022/08/06 12:40:39;;;;;;;;;;;23.70;61.40;;;;;;5089439;28;19908;-68
2022/08/06 12:43:07;;;;;;;;;;;24.10;60.60;;;;;;5090597;28;19908;-68
2022/08/06 12:45:35;;;;;;;;;;;24.40;59.80;;;;;;5090590;28;19931;-68
2022/08/06 12:48:02;;;;;;;;;;;24.20;60.60;;;;;;5090872;28;19951;-68
2022/08/06 12:50:28;;;;;;;;;;;24.40;60.70;;;;;;5090799;28;20398;-68
2022/08/06 12:53:02;;;;;;;;;;;24.40;60.10;;;;;;5090507;28;19950;-68
2022/08/06 12:55:28;;;;;;;;;;;24.00;59.90;;;;;;5090622;28;19908;-68
2022/08/06 12:57:55;;;;;;;;;;;23.70;62.70;;;;;;5090396;28;19908;-68
2022/08/06 13:00:21;;;;;;;;;;;23.50;62.40;;;;;;5090424;28;19919;-68
2022/08/06 13:02:47;;;;;;;;;;;23.20;65.60;;;;;;5090345;28;20370;-68
2022/08/06 13:05:13;;;;;;;;;;;22.90;64.90;;;;;;5090312;28;19908;-68
2022/08/06 13:07:38;;;;;;;;;;;22.50;66.90;;;;;;5090501;28;19915;-68
2022/08/06 13:10:08;;;;;;;;;;;22.40;67.50;;;;;;5090182;28;19908;-68
2022/08/06 13:12:34;;;;;;;;;;;22.90;68.50;;;;;;5090125;28;19934;-68
2022/08/06 13:14:59;;;;;;;;;;;23.50;65.30;;;;;;5090372;28;19909;-68
2022/08/06 13:17:25;;;;;;;;;;;23.70;65.80;;;;;;5106968;28;19946;-68
2022/08/06 13:19:53;;;;;;;;;;;24.00;64.10;;;;;;5110576;28;19958;-68
2022/08/06 13:22:18;;;;;;;;;;;23.40;63.20;;;;;;5110533;28;20392;-68
2022/08/06 13:24:44;;;;;;;;;;;23.30;63.30;;;;;;5110268;28;19908;-68
2022/08/06 13:27:09;;;;;;;;;;;22.70;66.70;;;;;;5108064;28;19923;-68
2022/08/06 13:29:35;;;;;;;;;;;22.50;67.40;;;;;;5096381;28;19909;-68
2022/08/06 13:32:05;;;;;;;;;;;22.30;67.50;;;;;;5096779;28;19998;-68
2022/08/06 13:34:53;;;;;;;;;;;22.10;68.80;;;;;;5096725;28;20282;-68
2022/08/06 13:37:38;;;;;;;;;;;22.00;70.40;;;;;;5096374;28;19912;-68
2022/08/06 13:40:04;;;;;;;;;;;22.30;69.30;;;;;;5096176;28;19977;-68
2022/08/06 13:42:29;;;;;;;;;;;22.30;69.60;;;;;;5096618;28;19908;-68
2022/08/06 13:44:55;;;;;;;;;;;22.70;68.70;;;;;;5096377;28;20334;-68
2022/08/06 13:47:29;;;;;;;;;;;23.00;66.00;;;;;;5096318;28;19916;-68
2022/08/06 13:49:54;;;;;;;;;;;23.40;64.00;;;;;;5096438;28;19908;-68
2022/08/06 13:52:20;;;;;;;;;;;23.70;61.90;;;;;;5096343;28;19913;-68
2022/08/06 13:54:45;;;;;;;;;;;23.60;64.00;;;;;;5096391;28;19908;-68
2022/08/06 13:57:11;;;;;;;;;;;23.70;64.60;;;;;;5096289;28;19912;-68
2022/08/06 13:59:37;;;;;;;;;;;23.90;65.30;;;;;;5096030;28;19937;-68
2022/08/06 14:02:04;;;;;;;;;;;23.90;63.60;;;;;;5077884;28;19953;-68
2022/08/06 14:04:29;;;;;;;;;;;24.10;63.40;;;;;;5095970;28;19908;-68
2022/08/06 14:06:56;;;;;;;;;;;24.40;62.10;;;;;;5096160;28;19914;-68
2022/08/06 14:09:22;;;;;;;;;;;24.10;61.40;;;;;;5096070;28;20385;-68
2022/08/06 14:11:50;;;;;;;;;;;24.60;65.20;;;;;;5096145;28;19909;-68
2022/08/06 14:14:15;;;;;;;;;;;25.20;62.10;;;;;;5061037;28;20303;-68
2022/08/06 14:16:41;;;;;;;;;;;24.60;61.40;;;;;;5073958;28;19921;-68
2022/08/06 14:19:06;;;;;;;;;;;24.40;62.10;;;;;;5075371;28;19909;-68
2022/08/06 14:21:32;;;;;;;;;;;24.30;62.60;;;;;;5075638;28;20042;-68
2022/08/06 14:23:57;;;;;;;;;;;23.70;63.00;;;;;;5108077;28;19916;-68
2022/08/06 14:26:23;;;;;;;;;;;22.80;64.20;;;;;;5075508;28;19934;-67
2022/08/06 14:28:48;;;;;;;;;;;22.90;66.50;;;;;;5075297;28;19915;-68
2022/08/06 14:31:14;;;;;;;;;;;23.00;67.30;;;;;;5075459;28;19908;-68
2022/08/06 14:33:40;;;;;;;;;;;23.00;65.70;;;;;;5075109;28;20366;-68
2022/08/06 14:36:06;;;;;;;;;;;23.00;65.20;;;;;;5073726;28;20438;-68
2022/08/06 14:38:32;;;;;;;;;;;22.70;66.40;;;;;;5074986;28;20091;-68
2022/08/06 14:46:28;;;;;;;;;;;22.20;66.10;;;;;;5074696;28;19908;-68